sensor_id;sensor_type;location;lat;lon;timestamp;temperature;humidity
10282;DHT22;5186;59.472;18.048;2023-10-31T00:01:16;9.30;99.90
10282;DHT22;5186;59.472;18.048;2023-10-31T00:03:41;9.40;99.90
10282;DHT22;5186;59.472;18.048;2023-10-31T00:06:08;9.40;99.90
10282;DHT22;5186;59.472;18.048;2023-10-31T00:08:33;9.40;99.90
10282;DHT22;5186;59.472;18.048;2023-10-31T00:10:59;9.40;99.90
10282;DHT22;5186;59.472;18.048;2023-10-31T00:13:25;9.50;99.90
10282;DHT22;5186;59.472;18.048;2023-10-31T00:15:50;9.50;99.90
10282;DHT22;5186;59.472;18.048;2023-10-31T00:18:16;9.50;99.90
10282;DHT22;5186;59.472;18.048;2023-10-31T00:20:42;9.50;99.90
10282;DHT22;5186;59.472;18.048;2023-10-31T00:23:07;9.60;99.90
10282;DHT22;5186;59.472;18.048;2023-10-31T00:25:33;9.60;99.90
10282;DHT22;5186;59.472;18.048;2023-10-31T00:27:58;9.60;99.90
10282;DHT22;5186;59.472;18.048;2023-10-31T00:30:24;9.60;99.90
10282;DHT22;5186;59.472;18.048;2023-10-31T00:32:49;9.60;99.90
10282;DHT22;5186;59.472;18.048;2023-10-31T00:35:15;9.60;99.90
10282;DHT22;5186;59.472;18.048;2023-10-31T00:37:41;9.60;99.90
10282;DHT22;5186;59.472;18.048;2023-10-31T00:40:07;9.70;99.90
10282;DHT22;5186;59.472;18.048;2023-10-31T00:42:36;9.70;99.90
10282;DHT22;5186;59.472;18.048;2023-10-31T00:45:02;9.70;99.90
10282;DHT22;5186;59.472;18.048;2023-10-31T00:47:28;9.70;99.90
10282;DHT22;5186;59.472;18.048;2023-10-31T00:49:53;9.70;99.90
10282;DHT22;5186;59.472;18.048;2023-10-31T00:52:19;9.70;99.90
10282;DHT22;5186;59.472;18.048;2023-10-31T00:54:45;9.70;99.90
10282;DHT22;5186;59.472;18.048;2023-10-31T00:57:10;9.70;99.90
10282;DHT22;5186;59.472;18.048;2023-10-31T00:59:36;9.80;99.90
10282;DHT22;5186;59.472;18.048;2023-10-31T01:02:02;9.80;99.90
10282;DHT22;5186;59.472;18.048;2023-10-31T01:04:28;9.80;99.90
10282;DHT22;5186;59.472;18.048;2023-10-31T01:06:54;9.80;99.90
10282;DHT22;5186;59.472;18.048;2023-10-31T01:09:19;9.80;99.90
10282;DHT22;5186;59.472;18.048;2023-10-31T01:11:45;9.80;99.90
10282;DHT22;5186;59.472;18.048;2023-10-31T01:14:10;9.80;99.90
10282;DHT22;5186;59.472;18.048;2023-10-31T01:16:36;9.80;99.90
10282;DHT22;5186;59.472;18.048;2023-10-31T01:19:01;9.80;99.90
10282;DHT22;5186;59.472;18.048;2023-10-31T01:21:27;9.80;99.90
10282;DHT22;5186;59.472;18.048;2023-10-31T01:23:52;9.80;99.90
10282;DHT22;5186;59.472;18.048;2023-10-31T01:26:18;9.80;99.90
10282;DHT22;5186;59.472;18.048;2023-10-31T01:28:43;9.80;99.90
10282;DHT22;5186;59.472;18.048;2023-10-31T01:31:09;9.80;99.90
10282;DHT22;5186;59.472;18.048;2023-10-31T01:33:35;9.80;99.90
10282;DHT22;5186;59.472;18.048;2023-10-31T01:36:01;9.80;99.90
10282;DHT22;5186;59.472;18.048;2023-10-31T01:38:26;9.80;99.90
10282;DHT22;5186;59.472;18.048;2023-10-31T01:40:53;9.80;99.90
10282;DHT22;5186;59.472;18.048;2023-10-31T01:43:34;9.90;99.90
10282;DHT22;5186;59.472;18.048;2023-10-31T01:45:59;9.90;99.90
10282;DHT22;5186;59.472;18.048;2023-10-31T01:48:27;9.90;99.90
10282;DHT22;5186;59.472;18.048;2023-10-31T01:50:53;9.90;99.90
10282;DHT22;5186;59.472;18.048;2023-10-31T01:53:19;9.90;99.90
10282;DHT22;5186;59.472;18.048;2023-10-31T01:55:45;9.90;99.90
10282;DHT22;5186;59.472;18.048;2023-10-31T01:58:12;9.90;99.90
10282;DHT22;5186;59.472;18.048;2023-10-31T02:00:40;9.90;99.90
10282;DHT22;5186;59.472;18.048;2023-10-31T02:03:07;9.80;99.90
10282;DHT22;5186;59.472;18.048;2023-10-31T02:05:33;9.90;99.90
10282;DHT22;5186;59.472;18.048;2023-10-31T02:08:00;9.80;99.90
10282;DHT22;5186;59.472;18.048;2023-10-31T02:10:26;9.90;99.90
10282;DHT22;5186;59.472;18.048;2023-10-31T02:12:51;9.90;99.90
10282;DHT22;5186;59.472;18.048;2023-10-31T02:15:17;9.80;99.90
10282;DHT22;5186;59.472;18.048;2023-10-31T02:17:42;9.80;99.90
10282;DHT22;5186;59.472;18.048;2023-10-31T02:20:08;9.80;99.90
10282;DHT22;5186;59.472;18.048;2023-10-31T02:22:34;9.80;99.90
10282;DHT22;5186;59.472;18.048;2023-10-31T02:24:59;9.80;99.90
10282;DHT22;5186;59.472;18.048;2023-10-31T02:27:25;9.90;99.90
10282;DHT22;5186;59.472;18.048;2023-10-31T02:29:50;9.80;99.90
10282;DHT22;5186;59.472;18.048;2023-10-31T02:32:16;9.90;99.90
10282;DHT22;5186;59.472;18.048;2023-10-31T02:34:42;9.90;99.90
10282;DHT22;5186;59.472;18.048;2023-10-31T02:37:07;9.80;99.90
10282;DHT22;5186;59.472;18.048;2023-10-31T02:39:33;9.90;99.90
10282;DHT22;5186;59.472;18.048;2023-10-31T02:41:59;9.90;99.90
10282;DHT22;5186;59.472;18.048;2023-10-31T02:44:24;9.90;99.90
10282;DHT22;5186;59.472;18.048;2023-10-31T02:46:50;9.90;99.90
10282;DHT22;5186;59.472;18.048;2023-10-31T02:49:15;9.90;99.90
10282;DHT22;5186;59.472;18.048;2023-10-31T02:51:41;9.90;99.90
10282;DHT22;5186;59.472;18.048;2023-10-31T02:54:06;9.90;99.90
10282;DHT22;5186;59.472;18.048;2023-10-31T02:56:32;9.90;99.90
10282;DHT22;5186;59.472;18.048;2023-10-31T02:58:58;9.80;99.90
10282;DHT22;5186;59.472;18.048;2023-10-31T03:01:23;9.80;99.90
10282;DHT22;5186;59.472;18.048;2023-10-31T03:03:49;9.90;99.90
10282;DHT22;5186;59.472;18.048;2023-10-31T03:06:15;9.80;99.90
10282;DHT22;5186;59.472;18.048;2023-10-31T03:08:40;9.90;99.90
10282;DHT22;5186;59.472;18.048;2023-10-31T03:11:06;9.90;99.90
10282;DHT22;5186;59.472;18.048;2023-10-31T03:13:31;9.90;99.90
10282;DHT22;5186;59.472;18.048;2023-10-31T03:15:57;9.80;99.90
10282;DHT22;5186;59.472;18.048;2023-10-31T03:18:23;9.80;99.90
10282;DHT22;5186;59.472;18.048;2023-10-31T03:20:48;9.80;99.90
10282;DHT22;5186;59.472;18.048;2023-10-31T03:23:14;9.80;99.90
10282;DHT22;5186;59.472;18.048;2023-10-31T03:25:40;9.80;99.90
10282;DHT22;5186;59.472;18.048;2023-10-31T03:28:17;9.70;99.90
10282;DHT22;5186;59.472;18.048;2023-10-31T03:30:43;9.70;99.90
10282;DHT22;5186;59.472;18.048;2023-10-31T03:33:09;9.70;99.90
10282;DHT22;5186;59.472;18.048;2023-10-31T03:35:34;9.60;99.90
10282;DHT22;5186;59.472;18.048;2023-10-31T03:38:00;9.70;99.90
10282;DHT22;5186;59.472;18.048;2023-10-31T03:40:25;9.60;99.90
10282;DHT22;5186;59.472;18.048;2023-10-31T03:42:51;9.60;99.90
10282;DHT22;5186;59.472;18.048;2023-10-31T03:45:16;9.70;99.90
10282;DHT22;5186;59.472;18.048;2023-10-31T03:47:42;9.70;99.90
10282;DHT22;5186;59.472;18.048;2023-10-31T03:50:08;9.70;99.90
10282;DHT22;5186;59.472;18.048;2023-10-31T03:52:34;9.60;99.90
10282;DHT22;5186;59.472;18.048;2023-10-31T03:55:00;9.70;99.90
10282;DHT22;5186;59.472;18.048;2023-10-31T03:57:25;9.70;99.90
10282;DHT22;5186;59.472;18.048;2023-10-31T03:59:51;9.80;99.90
10282;DHT22;5186;59.472;18.048;2023-10-31T04:02:16;9.80;99.90
10282;DHT22;5186;59.472;18.048;2023-10-31T04:04:42;9.80;99.90
10282;DHT22;5186;59.472;18.048;2023-10-31T04:07:08;9.80;99.90
10282;DHT22;5186;59.472;18.048;2023-10-31T04:09:33;9.80;99.90
10282;DHT22;5186;59.472;18.048;2023-10-31T04:11:59;9.80;99.90
10282;DHT22;5186;59.472;18.048;2023-10-31T04:14:24;9.80;99.90
10282;DHT22;5186;59.472;18.048;2023-10-31T04:16:50;9.90;99.90
10282;DHT22;5186;59.472;18.048;2023-10-31T04:19:16;9.90;99.90
10282;DHT22;5186;59.472;18.048;2023-10-31T04:21:41;9.90;99.90
10282;DHT22;5186;59.472;18.048;2023-10-31T04:24:07;9.90;99.90
10282;DHT22;5186;59.472;18.048;2023-10-31T04:26:32;9.90;99.90
10282;DHT22;5186;59.472;18.048;2023-10-31T04:28:58;9.90;99.90
10282;DHT22;5186;59.472;18.048;2023-10-31T04:31:23;9.90;99.90
10282;DHT22;5186;59.472;18.048;2023-10-31T04:33:49;9.90;99.90
10282;DHT22;5186;59.472;18.048;2023-10-31T04:36:15;10.00;99.90
10282;DHT22;5186;59.472;18.048;2023-10-31T04:38:41;9.90;99.90
10282;DHT22;5186;59.472;18.048;2023-10-31T04:41:08;10.00;99.90
10282;DHT22;5186;59.472;18.048;2023-10-31T04:43:34;9.90;99.90
10282;DHT22;5186;59.472;18.048;2023-10-31T04:46:00;10.00;99.90
10282;DHT22;5186;59.472;18.048;2023-10-31T04:48:26;9.90;99.90
10282;DHT22;5186;59.472;18.048;2023-10-31T04:50:51;10.00;99.90
10282;DHT22;5186;59.472;18.048;2023-10-31T04:53:17;10.00;99.90
10282;DHT22;5186;59.472;18.048;2023-10-31T04:55:42;10.00;99.90
10282;DHT22;5186;59.472;18.048;2023-10-31T04:58:08;10.00;99.90
10282;DHT22;5186;59.472;18.048;2023-10-31T05:00:33;10.00;99.90
10282;DHT22;5186;59.472;18.048;2023-10-31T05:02:59;10.10;99.90
10282;DHT22;5186;59.472;18.048;2023-10-31T05:05:26;10.10;99.90
10282;DHT22;5186;59.472;18.048;2023-10-31T05:07:52;10.10;99.90
10282;DHT22;5186;59.472;18.048;2023-10-31T05:10:17;10.10;99.90
10282;DHT22;5186;59.472;18.048;2023-10-31T05:12:43;10.10;99.90
10282;DHT22;5186;59.472;18.048;2023-10-31T05:15:09;10.10;99.90
10282;DHT22;5186;59.472;18.048;2023-10-31T05:17:34;10.10;99.90
10282;DHT22;5186;59.472;18.048;2023-10-31T05:20:00;10.00;99.90
10282;DHT22;5186;59.472;18.048;2023-10-31T05:22:25;10.10;99.90
10282;DHT22;5186;59.472;18.048;2023-10-31T05:24:51;10.10;99.90
10282;DHT22;5186;59.472;18.048;2023-10-31T05:27:16;10.10;99.90
10282;DHT22;5186;59.472;18.048;2023-10-31T05:29:42;10.00;99.90
10282;DHT22;5186;59.472;18.048;2023-10-31T05:32:07;10.00;99.90
10282;DHT22;5186;59.472;18.048;2023-10-31T05:34:34;10.00;99.90
10282;DHT22;5186;59.472;18.048;2023-10-31T05:36:59;9.90;99.90
10282;DHT22;5186;59.472;18.048;2023-10-31T05:39:25;9.90;99.90
10282;DHT22;5186;59.472;18.048;2023-10-31T05:41:50;9.90;99.90
10282;DHT22;5186;59.472;18.048;2023-10-31T05:44:16;9.80;99.90
10282;DHT22;5186;59.472;18.048;2023-10-31T05:46:42;9.80;99.90
10282;DHT22;5186;59.472;18.048;2023-10-31T05:49:08;9.80;99.90
10282;DHT22;5186;59.472;18.048;2023-10-31T05:51:34;9.80;99.90
10282;DHT22;5186;59.472;18.048;2023-10-31T05:54:01;9.80;99.90
10282;DHT22;5186;59.472;18.048;2023-10-31T05:56:26;9.70;99.90
10282;DHT22;5186;59.472;18.048;2023-10-31T05:58:52;9.70;99.90
10282;DHT22;5186;59.472;18.048;2023-10-31T06:01:18;9.60;99.90
10282;DHT22;5186;59.472;18.048;2023-10-31T06:03:44;9.60;99.90
10282;DHT22;5186;59.472;18.048;2023-10-31T06:06:10;9.60;99.90
10282;DHT22;5186;59.472;18.048;2023-10-31T06:08:37;9.60;99.90
10282;DHT22;5186;59.472;18.048;2023-10-31T06:11:03;9.50;99.90
10282;DHT22;5186;59.472;18.048;2023-10-31T06:13:29;9.40;99.90
10282;DHT22;5186;59.472;18.048;2023-10-31T06:15:57;9.40;99.90
10282;DHT22;5186;59.472;18.048;2023-10-31T06:18:23;9.40;99.90
10282;DHT22;5186;59.472;18.048;2023-10-31T06:20:49;9.40;99.90
10282;DHT22;5186;59.472;18.048;2023-10-31T06:23:14;9.30;99.90
10282;DHT22;5186;59.472;18.048;2023-10-31T06:25:40;9.30;99.90
10282;DHT22;5186;59.472;18.048;2023-10-31T06:28:05;9.30;99.90
10282;DHT22;5186;59.472;18.048;2023-10-31T06:30:31;9.30;99.90
10282;DHT22;5186;59.472;18.048;2023-10-31T06:32:57;9.20;99.90
10282;DHT22;5186;59.472;18.048;2023-10-31T06:35:23;9.20;99.90
10282;DHT22;5186;59.472;18.048;2023-10-31T06:37:54;9.10;99.90
10282;DHT22;5186;59.472;18.048;2023-10-31T06:40:21;9.10;99.90
10282;DHT22;5186;59.472;18.048;2023-10-31T06:42:46;9.00;99.90
10282;DHT22;5186;59.472;18.048;2023-10-31T06:45:12;9.00;99.90
10282;DHT22;5186;59.472;18.048;2023-10-31T06:47:38;9.00;99.90
10282;DHT22;5186;59.472;18.048;2023-10-31T06:50:04;8.90;99.90
10282;DHT22;5186;59.472;18.048;2023-10-31T06:52:29;8.90;99.90
10282;DHT22;5186;59.472;18.048;2023-10-31T06:54:55;8.90;99.90
10282;DHT22;5186;59.472;18.048;2023-10-31T06:57:20;8.80;99.90
10282;DHT22;5186;59.472;18.048;2023-10-31T06:59:46;8.80;99.90
10282;DHT22;5186;59.472;18.048;2023-10-31T07:02:12;8.70;99.90
10282;DHT22;5186;59.472;18.048;2023-10-31T07:04:37;8.60;99.90
10282;DHT22;5186;59.472;18.048;2023-10-31T07:07:03;8.50;99.90
10282;DHT22;5186;59.472;18.048;2023-10-31T07:09:28;8.60;99.90
10282;DHT22;5186;59.472;18.048;2023-10-31T07:11:54;8.40;99.90
10282;DHT22;5186;59.472;18.048;2023-10-31T07:14:20;8.40;99.90
10282;DHT22;5186;59.472;18.048;2023-10-31T07:16:47;8.40;99.90
10282;DHT22;5186;59.472;18.048;2023-10-31T07:19:13;8.40;99.90
10282;DHT22;5186;59.472;18.048;2023-10-31T07:21:39;8.40;99.90
10282;DHT22;5186;59.472;18.048;2023-10-31T07:24:04;8.40;99.90
10282;DHT22;5186;59.472;18.048;2023-10-31T07:26:30;8.40;99.90
10282;DHT22;5186;59.472;18.048;2023-10-31T07:28:56;8.40;99.90
10282;DHT22;5186;59.472;18.048;2023-10-31T07:31:22;8.30;99.90
10282;DHT22;5186;59.472;18.048;2023-10-31T07:33:47;8.30;99.90
10282;DHT22;5186;59.472;18.048;2023-10-31T07:36:13;8.30;99.90
10282;DHT22;5186;59.472;18.048;2023-10-31T07:38:39;8.30;99.90
10282;DHT22;5186;59.472;18.048;2023-10-31T07:41:04;8.20;99.90
10282;DHT22;5186;59.472;18.048;2023-10-31T07:43:30;8.20;99.90
10282;DHT22;5186;59.472;18.048;2023-10-31T07:45:55;8.10;99.90
10282;DHT22;5186;59.472;18.048;2023-10-31T07:48:21;8.10;99.90
10282;DHT22;5186;59.472;18.048;2023-10-31T07:50:47;8.10;99.90
10282;DHT22;5186;59.472;18.048;2023-10-31T07:53:12;8.10;99.90
10282;DHT22;5186;59.472;18.048;2023-10-31T07:55:38;8.10;99.90
10282;DHT22;5186;59.472;18.048;2023-10-31T07:58:03;8.10;99.90
10282;DHT22;5186;59.472;18.048;2023-10-31T08:00:29;8.10;99.90
10282;DHT22;5186;59.472;18.048;2023-10-31T08:02:56;8.00;99.90
10282;DHT22;5186;59.472;18.048;2023-10-31T08:05:21;8.00;99.90
10282;DHT22;5186;59.472;18.048;2023-10-31T08:07:47;7.90;99.90
10282;DHT22;5186;59.472;18.048;2023-10-31T08:10:13;7.90;99.90
10282;DHT22;5186;59.472;18.048;2023-10-31T08:12:39;7.90;99.90
10282;DHT22;5186;59.472;18.048;2023-10-31T08:15:05;7.90;99.90
10282;DHT22;5186;59.472;18.048;2023-10-31T08:17:30;7.90;99.90
10282;DHT22;5186;59.472;18.048;2023-10-31T08:19:56;7.90;99.90
10282;DHT22;5186;59.472;18.048;2023-10-31T08:22:21;7.80;99.90
10282;DHT22;5186;59.472;18.048;2023-10-31T08:24:47;7.80;99.90
10282;DHT22;5186;59.472;18.048;2023-10-31T08:27:13;7.80;99.90
10282;DHT22;5186;59.472;18.048;2023-10-31T08:29:39;7.80;99.90
10282;DHT22;5186;59.472;18.048;2023-10-31T08:32:05;7.80;99.90
10282;DHT22;5186;59.472;18.048;2023-10-31T08:34:31;7.80;99.90
10282;DHT22;5186;59.472;18.048;2023-10-31T08:36:56;7.70;99.90
10282;DHT22;5186;59.472;18.048;2023-10-31T08:39:23;7.70;99.90
10282;DHT22;5186;59.472;18.048;2023-10-31T08:41:56;7.70;99.90
10282;DHT22;5186;59.472;18.048;2023-10-31T08:44:23;7.70;99.90
10282;DHT22;5186;59.472;18.048;2023-10-31T08:46:49;7.80;99.90
10282;DHT22;5186;59.472;18.048;2023-10-31T08:49:15;7.70;99.90
10282;DHT22;5186;59.472;18.048;2023-10-31T08:51:41;7.70;99.90
10282;DHT22;5186;59.472;18.048;2023-10-31T08:54:07;7.70;99.90
10282;DHT22;5186;59.472;18.048;2023-10-31T08:56:34;7.70;99.90
10282;DHT22;5186;59.472;18.048;2023-10-31T08:58:59;7.60;99.90
10282;DHT22;5186;59.472;18.048;2023-10-31T09:01:26;7.70;99.90
10282;DHT22;5186;59.472;18.048;2023-10-31T09:03:52;7.70;99.90
10282;DHT22;5186;59.472;18.048;2023-10-31T09:06:18;7.60;99.90
10282;DHT22;5186;59.472;18.048;2023-10-31T09:08:43;7.70;99.90
10282;DHT22;5186;59.472;18.048;2023-10-31T09:11:09;7.70;99.90
10282;DHT22;5186;59.472;18.048;2023-10-31T09:13:34;7.70;99.90
10282;DHT22;5186;59.472;18.048;2023-10-31T09:16:00;7.60;99.90
10282;DHT22;5186;59.472;18.048;2023-10-31T09:18:26;7.60;99.90
10282;DHT22;5186;59.472;18.048;2023-10-31T09:20:52;7.70;99.90
10282;DHT22;5186;59.472;18.048;2023-10-31T09:23:18;7.70;99.90
10282;DHT22;5186;59.472;18.048;2023-10-31T09:25:44;7.70;99.90
10282;DHT22;5186;59.472;18.048;2023-10-31T09:28:10;7.70;99.90
10282;DHT22;5186;59.472;18.048;2023-10-31T09:30:35;7.70;99.90
10282;DHT22;5186;59.472;18.048;2023-10-31T09:33:01;7.70;99.90
10282;DHT22;5186;59.472;18.048;2023-10-31T09:35:27;7.60;99.90
10282;DHT22;5186;59.472;18.048;2023-10-31T09:37:53;7.60;99.90
10282;DHT22;5186;59.472;18.048;2023-10-31T09:40:19;7.60;99.90
10282;DHT22;5186;59.472;18.048;2023-10-31T09:42:45;7.60;99.90
10282;DHT22;5186;59.472;18.048;2023-10-31T09:45:17;7.60;99.90
10282;DHT22;5186;59.472;18.048;2023-10-31T09:47:43;7.60;99.90
10282;DHT22;5186;59.472;18.048;2023-10-31T09:50:09;7.60;99.90
10282;DHT22;5186;59.472;18.048;2023-10-31T09:52:38;7.60;99.90
10282;DHT22;5186;59.472;18.048;2023-10-31T09:55:05;7.50;99.90
10282;DHT22;5186;59.472;18.048;2023-10-31T09:57:31;7.50;99.90
10282;DHT22;5186;59.472;18.048;2023-10-31T09:59:56;7.50;99.90
10282;DHT22;5186;59.472;18.048;2023-10-31T10:02:22;7.50;99.90
10282;DHT22;5186;59.472;18.048;2023-10-31T10:04:48;7.50;99.90
10282;DHT22;5186;59.472;18.048;2023-10-31T10:07:18;7.50;99.90
10282;DHT22;5186;59.472;18.048;2023-10-31T10:09:45;7.50;99.90
10282;DHT22;5186;59.472;18.048;2023-10-31T10:12:15;7.50;99.90
10282;DHT22;5186;59.472;18.048;2023-10-31T10:14:41;7.50;99.90
10282;DHT22;5186;59.472;18.048;2023-10-31T10:17:25;7.50;99.90
10282;DHT22;5186;59.472;18.048;2023-10-31T10:20:07;7.50;99.90
10282;DHT22;5186;59.472;18.048;2023-10-31T10:22:39;7.50;99.90
10282;DHT22;5186;59.472;18.048;2023-10-31T10:25:06;7.50;99.90
10282;DHT22;5186;59.472;18.048;2023-10-31T10:27:32;7.50;99.90
10282;DHT22;5186;59.472;18.048;2023-10-31T10:29:58;7.50;99.90
10282;DHT22;5186;59.472;18.048;2023-10-31T10:32:23;7.50;99.90
10282;DHT22;5186;59.472;18.048;2023-10-31T10:34:49;7.50;99.90
10282;DHT22;5186;59.472;18.048;2023-10-31T10:37:16;7.50;99.90
10282;DHT22;5186;59.472;18.048;2023-10-31T10:39:47;7.50;99.90
10282;DHT22;5186;59.472;18.048;2023-10-31T10:42:17;7.60;99.90
10282;DHT22;5186;59.472;18.048;2023-10-31T10:44:44;7.50;99.90
10282;DHT22;5186;59.472;18.048;2023-10-31T10:47:12;7.60;99.90
10282;DHT22;5186;59.472;18.048;2023-10-31T10:49:41;7.60;99.90
10282;DHT22;5186;59.472;18.048;2023-10-31T10:52:23;7.60;99.90
10282;DHT22;5186;59.472;18.048;2023-10-31T10:55:04;7.60;99.90
10282;DHT22;5186;59.472;18.048;2023-10-31T10:57:52;7.60;99.90
10282;DHT22;5186;59.472;18.048;2023-10-31T11:00:21;7.60;99.90
10282;DHT22;5186;59.472;18.048;2023-10-31T11:02:51;7.60;99.90
10282;DHT22;5186;59.472;18.048;2023-10-31T11:05:18;7.60;99.90
10282;DHT22;5186;59.472;18.048;2023-10-31T11:07:43;7.60;99.90
10282;DHT22;5186;59.472;18.048;2023-10-31T11:10:10;7.60;99.90
10282;DHT22;5186;59.472;18.048;2023-10-31T11:12:36;7.60;99.90
10282;DHT22;5186;59.472;18.048;2023-10-31T11:15:03;7.60;99.90
10282;DHT22;5186;59.472;18.048;2023-10-31T11:17:36;7.60;99.90
10282;DHT22;5186;59.472;18.048;2023-10-31T11:20:02;7.70;99.90
10282;DHT22;5186;59.472;18.048;2023-10-31T11:22:42;7.60;99.90
10282;DHT22;5186;59.472;18.048;2023-10-31T11:25:15;7.70;99.90
10282;DHT22;5186;59.472;18.048;2023-10-31T11:27:43;7.70;99.90
10282;DHT22;5186;59.472;18.048;2023-10-31T11:30:30;7.70;99.90
10282;DHT22;5186;59.472;18.048;2023-10-31T11:32:58;7.70;99.90
10282;DHT22;5186;59.472;18.048;2023-10-31T11:35:24;7.70;99.90
10282;DHT22;5186;59.472;18.048;2023-10-31T11:38:04;7.70;99.90
10282;DHT22;5186;59.472;18.048;2023-10-31T11:40:31;7.70;99.90
10282;DHT22;5186;59.472;18.048;2023-10-31T11:42:58;7.70;99.90
10282;DHT22;5186;59.472;18.048;2023-10-31T11:45:29;7.70;99.90
10282;DHT22;5186;59.472;18.048;2023-10-31T11:47:55;7.70;99.90
10282;DHT22;5186;59.472;18.048;2023-10-31T11:50:22;7.70;99.90
10282;DHT22;5186;59.472;18.048;2023-10-31T11:53:02;7.70;99.90
10282;DHT22;5186;59.472;18.048;2023-10-31T11:55:31;7.70;99.90
10282;DHT22;5186;59.472;18.048;2023-10-31T11:57:57;7.70;99.90
10282;DHT22;5186;59.472;18.048;2023-10-31T12:00:23;7.70;99.90
10282;DHT22;5186;59.472;18.048;2023-10-31T12:03:02;7.60;99.90
10282;DHT22;5186;59.472;18.048;2023-10-31T12:05:27;7.60;99.90
10282;DHT22;5186;59.472;18.048;2023-10-31T12:07:53;7.60;99.90
10282;DHT22;5186;59.472;18.048;2023-10-31T12:10:28;7.60;99.90
10282;DHT22;5186;59.472;18.048;2023-10-31T12:12:57;7.70;99.90
10282;DHT22;5186;59.472;18.048;2023-10-31T12:15:26;7.60;99.90
10282;DHT22;5186;59.472;18.048;2023-10-31T12:17:52;7.70;99.90
10282;DHT22;5186;59.472;18.048;2023-10-31T12:20:17;7.70;99.90
10282;DHT22;5186;59.472;18.048;2023-10-31T12:22:43;7.70;99.90
10282;DHT22;5186;59.472;18.048;2023-10-31T12:25:10;7.70;99.90
10282;DHT22;5186;59.472;18.048;2023-10-31T12:30:10;7.70;99.90
10282;DHT22;5186;59.472;18.048;2023-10-31T12:32:36;7.70;99.90
10282;DHT22;5186;59.472;18.048;2023-10-31T12:35:02;7.70;99.90
10282;DHT22;5186;59.472;18.048;2023-10-31T12:37:28;7.70;99.90
10282;DHT22;5186;59.472;18.048;2023-10-31T12:39:55;7.70;99.90
10282;DHT22;5186;59.472;18.048;2023-10-31T12:42:22;7.70;99.90
10282;DHT22;5186;59.472;18.048;2023-10-31T12:44:48;7.70;99.90
10282;DHT22;5186;59.472;18.048;2023-10-31T12:47:21;7.70;99.90
10282;DHT22;5186;59.472;18.048;2023-10-31T12:49:47;7.80;99.90
10282;DHT22;5186;59.472;18.048;2023-10-31T12:52:13;7.80;99.90
10282;DHT22;5186;59.472;18.048;2023-10-31T12:54:39;7.80;99.90
10282;DHT22;5186;59.472;18.048;2023-10-31T12:57:05;7.80;99.90
10282;DHT22;5186;59.472;18.048;2023-10-31T12:59:32;7.80;99.90
10282;DHT22;5186;59.472;18.048;2023-10-31T13:01:58;7.80;99.90
10282;DHT22;5186;59.472;18.048;2023-10-31T13:04:25;7.80;99.90
10282;DHT22;5186;59.472;18.048;2023-10-31T13:07:02;7.80;99.90
10282;DHT22;5186;59.472;18.048;2023-10-31T13:09:38;7.80;99.90
10282;DHT22;5186;59.472;18.048;2023-10-31T13:12:08;7.80;99.90
10282;DHT22;5186;59.472;18.048;2023-10-31T13:14:36;7.80;99.90
10282;DHT22;5186;59.472;18.048;2023-10-31T13:17:03;7.80;99.90
10282;DHT22;5186;59.472;18.048;2023-10-31T13:19:29;7.80;99.90
10282;DHT22;5186;59.472;18.048;2023-10-31T13:21:54;7.80;99.90
10282;DHT22;5186;59.472;18.048;2023-10-31T13:24:20;7.80;99.90
10282;DHT22;5186;59.472;18.048;2023-10-31T13:26:45;7.80;99.90
10282;DHT22;5186;59.472;18.048;2023-10-31T13:29:16;7.80;99.90
10282;DHT22;5186;59.472;18.048;2023-10-31T13:31:42;7.80;99.90
10282;DHT22;5186;59.472;18.048;2023-10-31T13:34:07;7.70;99.90
10282;DHT22;5186;59.472;18.048;2023-10-31T13:36:33;7.70;99.90
10282;DHT22;5186;59.472;18.048;2023-10-31T13:38:59;7.70;99.90
10282;DHT22;5186;59.472;18.048;2023-10-31T13:41:24;7.70;99.90
10282;DHT22;5186;59.472;18.048;2023-10-31T13:43:50;7.70;99.90
10282;DHT22;5186;59.472;18.048;2023-10-31T13:46:15;7.70;99.90
10282;DHT22;5186;59.472;18.048;2023-10-31T13:48:41;7.70;99.90
10282;DHT22;5186;59.472;18.048;2023-10-31T13:51:07;7.70;99.90
10282;DHT22;5186;59.472;18.048;2023-10-31T13:53:32;7.70;99.90
10282;DHT22;5186;59.472;18.048;2023-10-31T13:55:58;7.60;99.90
10282;DHT22;5186;59.472;18.048;2023-10-31T13:58:23;7.60;99.90
10282;DHT22;5186;59.472;18.048;2023-10-31T14:00:49;7.60;99.90
10282;DHT22;5186;59.472;18.048;2023-10-31T14:03:14;7.60;99.90
10282;DHT22;5186;59.472;18.048;2023-10-31T14:05:40;7.50;99.90
10282;DHT22;5186;59.472;18.048;2023-10-31T14:08:07;7.50;99.90
10282;DHT22;5186;59.472;18.048;2023-10-31T14:10:32;7.50;99.90
10282;DHT22;5186;59.472;18.048;2023-10-31T14:12:58;7.50;99.90
10282;DHT22;5186;59.472;18.048;2023-10-31T14:15:23;7.50;99.90
10282;DHT22;5186;59.472;18.048;2023-10-31T14:17:50;7.40;99.90
10282;DHT22;5186;59.472;18.048;2023-10-31T14:20:16;7.40;99.90
10282;DHT22;5186;59.472;18.048;2023-10-31T14:22:49;7.30;99.90
10282;DHT22;5186;59.472;18.048;2023-10-31T14:25:15;7.30;99.90
10282;DHT22;5186;59.472;18.048;2023-10-31T14:27:41;7.30;99.90
10282;DHT22;5186;59.472;18.048;2023-10-31T14:30:09;7.30;99.90
10282;DHT22;5186;59.472;18.048;2023-10-31T14:32:34;7.20;99.90
10282;DHT22;5186;59.472;18.048;2023-10-31T14:35:00;7.20;99.90
10282;DHT22;5186;59.472;18.048;2023-10-31T14:37:25;7.20;99.90
10282;DHT22;5186;59.472;18.048;2023-10-31T14:39:53;7.20;99.90
10282;DHT22;5186;59.472;18.048;2023-10-31T14:42:19;7.20;99.90
10282;DHT22;5186;59.472;18.048;2023-10-31T14:44:46;7.20;99.90
10282;DHT22;5186;59.472;18.048;2023-10-31T14:47:11;7.20;99.90
10282;DHT22;5186;59.472;18.048;2023-10-31T14:49:37;7.20;99.90
10282;DHT22;5186;59.472;18.048;2023-10-31T14:52:02;7.20;99.90
10282;DHT22;5186;59.472;18.048;2023-10-31T14:54:29;7.10;99.90
10282;DHT22;5186;59.472;18.048;2023-10-31T14:56:56;7.10;99.90
10282;DHT22;5186;59.472;18.048;2023-10-31T14:59:22;7.10;99.90
10282;DHT22;5186;59.472;18.048;2023-10-31T15:01:48;7.00;99.90
10282;DHT22;5186;59.472;18.048;2023-10-31T15:04:14;7.00;99.90
10282;DHT22;5186;59.472;18.048;2023-10-31T15:06:39;6.90;99.90
10282;DHT22;5186;59.472;18.048;2023-10-31T15:09:05;6.90;99.90
10282;DHT22;5186;59.472;18.048;2023-10-31T15:11:31;6.90;99.90
10282;DHT22;5186;59.472;18.048;2023-10-31T15:13:57;6.90;99.90
10282;DHT22;5186;59.472;18.048;2023-10-31T15:16:23;6.90;99.90
10282;DHT22;5186;59.472;18.048;2023-10-31T15:18:49;6.90;99.90
10282;DHT22;5186;59.472;18.048;2023-10-31T15:21:14;6.90;99.90
10282;DHT22;5186;59.472;18.048;2023-10-31T15:23:40;7.00;99.90
10282;DHT22;5186;59.472;18.048;2023-10-31T15:26:05;6.90;99.90
10282;DHT22;5186;59.472;18.048;2023-10-31T15:28:34;6.90;99.90
10282;DHT22;5186;59.472;18.048;2023-10-31T15:31:01;6.90;99.90
10282;DHT22;5186;59.472;18.048;2023-10-31T15:33:28;6.90;99.90
10282;DHT22;5186;59.472;18.048;2023-10-31T15:35:53;6.90;99.90
10282;DHT22;5186;59.472;18.048;2023-10-31T15:38:19;6.90;99.90
10282;DHT22;5186;59.472;18.048;2023-10-31T15:40:44;6.80;99.90
10282;DHT22;5186;59.472;18.048;2023-10-31T15:43:10;6.90;99.90